createdAt,value
2022-12-14T00:00:27.839Z,99365.16
2022-12-14T00:02:57.744Z,99369.41
2022-12-14T00:05:29.064Z,99366.13
2022-12-14T00:07:58.633Z,99360.97
2022-12-14T00:10:28.526Z,99366.13
2022-12-14T00:12:58.494Z,99364.38
2022-12-14T00:15:28.294Z,99370.47
2022-12-14T00:17:57.856Z,99369.72
2022-12-14T00:20:27.955Z,99371.38
2022-12-14T00:22:56.723Z,99372.22
2022-12-14T00:25:25.555Z,99372.09
2022-12-14T00:27:53.362Z,99370.38
2022-12-14T00:30:22.951Z,99369.53
2022-12-14T00:32:50.735Z,99372.09
2022-12-14T00:35:20.275Z,99367.91
2022-12-14T00:37:49.788Z,99362.59
2022-12-14T00:40:17.637Z,99365.13
2022-12-14T00:42:47.200Z,99367.78
2022-12-14T00:45:16.787Z,99384.41
2022-12-14T00:47:46.335Z,99384.44
2022-12-14T00:50:15.832Z,99392.94
2022-12-14T00:52:45.282Z,99387.69
2022-12-14T00:55:14.819Z,99388.69
2022-12-14T00:57:44.373Z,99392.38
2022-12-14T01:00:14.064Z,99388.75
2022-12-14T01:02:42.773Z,99393.00
2022-12-14T01:05:12.391Z,99393.78
2022-12-14T01:07:41.936Z,99388.56
2022-12-14T01:10:11.467Z,99383.34
2022-12-14T01:12:41.007Z,99376.38
2022-12-14T01:15:11.187Z,99378.06
2022-12-14T01:17:40.852Z,99381.53
2022-12-14T01:20:11.167Z,99383.13
2022-12-14T01:22:40.767Z,99384.97
2022-12-14T01:25:10.349Z,99388.28
2022-12-14T01:27:39.866Z,99388.25
2022-12-14T01:30:10.129Z,99395.31
2022-12-14T01:32:39.656Z,99389.22
2022-12-14T01:35:09.612Z,99378.63
2022-12-14T01:37:38.315Z,99379.47
2022-12-14T01:40:08.005Z,99383.16
2022-12-14T01:42:38.328Z,99379.84
2022-12-14T01:45:23.743Z,99371.97
2022-12-14T01:47:59.413Z,99376.31
2022-12-14T01:50:44.436Z,99374.53
2022-12-14T01:53:21.707Z,99365.84
2022-12-14T01:55:55.866Z,99358.75
2022-12-14T01:58:29.009Z,99349.03
2022-12-14T02:01:00.425Z,99349.88
2022-12-14T02:03:39.343Z,99348.06
2022-12-14T02:06:35.327Z,99347.41
2022-12-14T02:09:15.265Z,99335.97
2022-12-14T02:11:56.311Z,99337.75
2022-12-14T02:14:26.342Z,99328.06
2022-12-14T02:16:58.267Z,99332.19
2022-12-14T02:19:28.766Z,99328.56
2022-12-14T02:22:47.414Z,99323.66
2022-12-14T02:26:25.396Z,99324.28
2022-12-14T02:29:40.270Z,99325.31
2022-12-14T02:33:15.712Z,99326.31
2022-12-14T02:36:02.418Z,99328.66
2022-12-14T02:39:12.254Z,99321.16
2022-12-14T02:41:53.733Z,99316.31
2022-12-14T02:45:13.907Z,99314.59
2022-12-14T02:48:09.712Z,99309.25
2022-12-14T02:51:08.519Z,99301.97
2022-12-14T02:54:12.880Z,99293.28
2022-12-14T02:56:55.007Z,99287.22
2022-12-14T02:59:25.511Z,99288.81
2022-12-14T03:01:54.140Z,99291.78
2022-12-14T03:04:25.018Z,99288.97
2022-12-14T03:07:04.617Z,99293.34
2022-12-14T03:09:33.802Z,99295.97
2022-12-14T03:12:11.529Z,99303.78
2022-12-14T03:14:50.949Z,99300.16
2022-12-14T03:17:27.803Z,99302.78
2022-12-14T03:20:10.691Z,99303.69
2022-12-14T03:22:55.907Z,99310.78
2022-12-14T03:25:42.487Z,99301.78
2022-12-14T03:28:22.213Z,99304.50
2022-12-14T03:31:36.350Z,99302.44
2022-12-14T03:34:14.645Z,99302.59
2022-12-14T03:37:01.567Z,99300.03
2022-12-14T03:39:35.453Z,99294.66
2022-12-14T03:43:07.534Z,99292.16
2022-12-14T03:45:56.365Z,99300.66
2022-12-14T03:48:38.185Z,99302.59
2022-12-14T03:51:35.940Z,99302.41
2022-12-14T03:54:46.623Z,99288.75
2022-12-14T03:57:47.297Z,99281.56
2022-12-14T04:00:25.502Z,99284.78
2022-12-14T04:03:14.823Z,99280.53
2022-12-14T04:05:57.519Z,99272.72
2022-12-14T04:09:00.857Z,99257.84
2022-12-14T04:11:59.310Z,99258.03
2022-12-14T04:15:04.264Z,99270.94
2022-12-14T04:17:56.872Z,99259.53
2022-12-14T04:20:42.441Z,99255.94
2022-12-14T04:23:41.614Z,99247.22
2022-12-14T04:26:18.164Z,99248.13
2022-12-14T04:29:16.580Z,99244.78
2022-12-14T04:31:58.274Z,99239.63
2022-12-14T04:34:32.537Z,99251.81
2022-12-14T04:37:11.871Z,99262.09
2022-12-14T04:39:53.986Z,99262.25
2022-12-14T04:42:35.040Z,99255.13
2022-12-14T04:45:23.964Z,99253.25
2022-12-14T04:48:21.291Z,99242.81
2022-12-14T04:51:06.481Z,99245.59
2022-12-14T04:53:40.177Z,99242.81
2022-12-14T04:56:34.857Z,99243.59
2022-12-14T04:59:04.768Z,99239.22
2022-12-14T05:01:52.173Z,99234.88
2022-12-14T05:04:55.298Z,99231.66
2022-12-14T05:07:58.496Z,99229.66
2022-12-14T05:10:48.766Z,99221.34
2022-12-14T05:13:32.239Z,99223.97
2022-12-14T05:16:01.262Z,99226.72
2022-12-14T05:18:30.056Z,99226.66
2022-12-14T05:20:57.806Z,99222.69
2022-12-14T05:23:25.946Z,99217.34
2022-12-14T05:25:53.922Z,99220.06
2022-12-14T05:28:23.410Z,99208.38
2022-12-14T05:30:52.639Z,99207.63
2022-12-14T05:33:21.796Z,99203.44
2022-12-14T05:35:51.309Z,99220.44
2022-12-14T05:38:20.899Z,99224.47
2022-12-14T05:40:50.365Z,99224.69
2022-12-14T05:43:19.054Z,99226.66
2022-12-14T05:45:47.897Z,99216.22
2022-12-14T05:48:17.373Z,99205.56
2022-12-14T05:50:46.833Z,99201.38
2022-12-14T05:53:15.579Z,99199.69
2022-12-14T05:55:51.660Z,99198.53
2022-12-14T05:58:20.381Z,99192.53
2022-12-14T06:00:48.141Z,99192.53
2022-12-14T06:03:16.877Z,99193.53
2022-12-14T06:05:47.541Z,99189.06
2022-12-14T06:08:16.217Z,99191.66
2022-12-14T06:10:45.688Z,99193.44
2022-12-14T06:13:14.296Z,99191.59
2022-12-14T06:15:43.028Z,99185.41
2022-12-14T06:18:10.868Z,99174.56
2022-12-14T06:20:40.319Z,99172.84
2022-12-14T06:23:10.711Z,99162.53
2022-12-14T06:25:39.256Z,99156.31
2022-12-14T06:28:07.877Z,99146.88
2022-12-14T06:30:37.405Z,99140.53
2022-12-14T06:33:06.966Z,99141.22
2022-12-14T06:35:36.598Z,99138.81
2022-12-14T06:38:05.307Z,99144.09
2022-12-14T06:40:34.812Z,99166.50
2022-12-14T06:43:04.581Z,99177.00
2022-12-14T06:45:33.526Z,99180.63
2022-12-14T06:48:01.614Z,99178.78
2022-12-14T06:50:29.487Z,99179.81
2022-12-14T06:52:58.546Z,99166.81
2022-12-14T06:55:29.692Z,99162.47
2022-12-14T06:57:59.417Z,99163.03
2022-12-14T07:00:28.156Z,99166.44
2022-12-14T07:02:56.952Z,99158.63
2022-12-14T07:05:26.687Z,99165.31
2022-12-14T07:07:54.449Z,99161.09
2022-12-14T07:10:23.142Z,99146.91
2022-12-14T07:12:52.601Z,99147.94
2022-12-14T07:15:21.312Z,99143.66
2022-12-14T07:17:49.858Z,99149.53
2022-12-14T07:20:18.868Z,99148.78
2022-12-14T07:22:49.449Z,99151.34
2022-12-14T07:25:18.979Z,99153.78
2022-12-14T07:27:48.646Z,99148.41
2022-12-14T07:30:18.424Z,99136.97
2022-12-14T07:32:47.157Z,99131.25
2022-12-14T07:35:17.073Z,99126.13
2022-12-14T07:37:45.565Z,99132.31
2022-12-14T07:40:18.791Z,99128.84
2022-12-14T07:42:51.505Z,99134.78
2022-12-14T07:45:20.984Z,99134.38
2022-12-14T07:47:50.443Z,99137.09
2022-12-14T07:50:18.289Z,99144.59
2022-12-14T07:52:46.039Z,99143.09
2022-12-14T07:55:14.792Z,99135.19
2022-12-14T07:57:44.319Z,99131.03
2022-12-14T08:00:13.138Z,99127.13
2022-12-14T08:02:41.871Z,99133.88
2022-12-14T08:05:12.630Z,99148.47
2022-12-14T08:07:42.436Z,99156.88
2022-12-14T08:10:11.199Z,99162.28
2022-12-14T08:12:40.736Z,99158.91
2022-12-14T08:15:10.514Z,99164.72
2022-12-14T08:17:39.971Z,99167.84
2022-12-14T08:20:10.860Z,99162.22
2022-12-14T08:22:38.602Z,99155.97
2022-12-14T08:25:09.259Z,99155.91
2022-12-14T08:27:38.012Z,99160.13
2022-12-14T08:30:08.052Z,99151.50
2022-12-14T08:32:37.511Z,99155.28
2022-12-14T08:35:07.867Z,99153.25
2022-12-14T08:37:36.579Z,99161.59
2022-12-14T08:40:06.290Z,99156.53
2022-12-14T08:42:34.840Z,99146.97
2022-12-14T08:45:02.625Z,99145.47
2022-12-14T08:47:32.140Z,99146.91
2022-12-14T08:50:01.636Z,99147.75
2022-12-14T08:52:29.396Z,99144.97
2022-12-14T08:54:59.742Z,99137.94
2022-12-14T08:57:29.336Z,99139.84
2022-12-14T09:00:01.771Z,99128.81
2022-12-14T09:02:31.384Z,99133.09
2022-12-14T09:05:00.985Z,99122.44
2022-12-14T09:07:31.698Z,99119.34
2022-12-14T09:10:00.451Z,99117.34
2022-12-14T09:12:29.679Z,99101.81
2022-12-14T09:14:58.380Z,99103.44
2022-12-14T09:17:26.130Z,99100.78
2022-12-14T09:19:54.849Z,99094.94
2022-12-14T09:22:22.619Z,99102.19
2022-12-14T09:24:52.377Z,99097.22
2022-12-14T09:27:22.636Z,99088.81
2022-12-14T09:29:51.857Z,99088.78
2022-12-14T09:32:20.804Z,99085.94
2022-12-14T09:34:48.539Z,99084.31
2022-12-14T09:37:18.053Z,99082.38
2022-12-14T09:39:46.772Z,99070.00
2022-12-14T09:42:50.740Z,99065.13
2022-12-14T09:45:34.615Z,99063.72
2022-12-14T09:48:33.726Z,99067.97
2022-12-14T09:51:02.361Z,99070.16
2022-12-14T09:53:32.341Z,99073.06
2022-12-14T09:56:01.757Z,99075.16
2022-12-14T09:58:32.785Z,99074.03
2022-12-14T10:01:24.722Z,99065.91
2022-12-14T10:04:47.644Z,99062.34
2022-12-14T10:07:41.889Z,99080.53
2022-12-14T10:10:26.770Z,99074.22
2022-12-14T10:13:22.744Z,99073.06
2022-12-14T10:16:31.449Z,99077.78
2022-12-14T10:20:00.556Z,99071.56
2022-12-14T10:22:47.323Z,99066.38
2022-12-14T10:25:34.044Z,99062.72
2022-12-14T10:28:13.805Z,99047.25
2022-12-14T10:30:44.693Z,99039.28
2022-12-14T10:33:30.814Z,99031.22
2022-12-14T10:36:19.329Z,99027.81
2022-12-14T10:39:27.219Z,99019.31
2022-12-14T10:42:20.158Z,99024.44
2022-12-14T10:45:47.373Z,99014.59
2022-12-14T10:48:50.878Z,99002.00
2022-12-14T10:51:59.136Z,98993.00
2022-12-14T10:54:52.780Z,98989.25
2022-12-14T10:57:26.978Z,98980.75
2022-12-14T11:00:08.559Z,98977.97
2022-12-14T11:02:49.972Z,98987.66
2022-12-14T11:06:03.025Z,98971.34
2022-12-14T11:08:48.960Z,98964.22
2022-12-14T11:11:26.922Z,98970.09
2022-12-14T11:14:15.830Z,98966.44
2022-12-14T11:16:45.607Z,98960.22
2022-12-14T11:19:23.945Z,98962.53
2022-12-14T11:22:21.693Z,98967.59
2022-12-14T11:24:51.799Z,98960.19
2022-12-14T11:27:22.210Z,98962.41
2022-12-14T11:29:52.139Z,98962.69
2022-12-14T11:32:26.478Z,98961.41
2022-12-14T11:34:59.019Z,98975.19
2022-12-14T11:37:31.772Z,98968.13
2022-12-14T11:40:07.881Z,98967.25
2022-12-14T11:42:38.234Z,98964.25
2022-12-14T11:45:26.258Z,98971.25
2022-12-14T11:48:16.896Z,98954.56
2022-12-14T11:50:47.579Z,98953.88
2022-12-14T11:53:21.364Z,98946.41
2022-12-14T11:56:00.800Z,98940.13
2022-12-14T11:58:46.394Z,98937.91
2022-12-14T12:01:25.744Z,98940.13
2022-12-14T12:03:59.522Z,98943.50
2022-12-14T12:06:32.441Z,98942.53
2022-12-14T12:09:08.349Z,98934.81
2022-12-14T12:11:38.073Z,98933.84
2022-12-14T12:14:38.537Z,98922.28
2022-12-14T12:17:42.205Z,98926.56
2022-12-14T12:21:08.303Z,98915.63
2022-12-14T12:23:56.181Z,98906.09
2022-12-14T12:26:54.572Z,98907.66
2022-12-14T12:30:01.253Z,98895.31
2022-12-14T12:32:49.953Z,98891.41
2022-12-14T12:35:49.559Z,98875.13
2022-12-14T12:38:33.132Z,98878.13
2022-12-14T12:41:47.871Z,98884.97
2022-12-14T12:44:38.743Z,98874.53
2022-12-14T12:47:47.084Z,98867.91
2022-12-14T12:50:28.204Z,98867.41
2022-12-14T12:53:03.608Z,98862.31
2022-12-14T12:55:42.710Z,98856.50
2022-12-14T12:58:30.551Z,98852.28
2022-12-14T13:01:30.922Z,98841.28
2022-12-14T13:04:10.387Z,98830.75
2022-12-14T13:06:50.450Z,98835.59
2022-12-14T13:09:42.544Z,98839.88
2022-12-14T13:12:47.886Z,98833.81
2022-12-14T13:15:54.439Z,98838.78
2022-12-14T13:19:01.830Z,98840.19
2022-12-14T13:21:38.474Z,98830.16
2022-12-14T13:24:18.167Z,98839.88
2022-12-14T13:27:17.712Z,98834.28
2022-12-14T13:30:08.421Z,98826.47
2022-12-14T13:32:51.541Z,98835.25
2022-12-14T13:36:13.280Z,98825.06
2022-12-14T13:39:26.911Z,98829.00
2022-12-14T13:42:23.210Z,98818.06
2022-12-14T13:45:03.269Z,98815.50
2022-12-14T13:47:52.878Z,98808.31
2022-12-14T13:50:38.958Z,98804.00
2022-12-14T13:53:16.549Z,98796.66
2022-12-14T13:56:31.003Z,98781.19
2022-12-14T13:59:33.124Z,98777.81
2022-12-14T14:02:05.092Z,98763.63
2022-12-14T14:04:36.643Z,98783.78
2022-12-14T14:07:24.225Z,98781.91
2022-12-14T14:09:55.837Z,98770.38
2022-12-14T14:12:24.438Z,98780.56
2022-12-14T14:15:35.609Z,98772.50
2022-12-14T14:18:28.303Z,98771.13
2022-12-14T14:21:13.439Z,98760.41
2022-12-14T14:24:18.054Z,98760.59
2022-12-14T14:27:11.632Z,98762.50
2022-12-14T14:29:50.605Z,98758.59
2022-12-14T14:32:39.230Z,98754.97
2022-12-14T14:35:35.956Z,98753.91
2022-12-14T14:38:28.420Z,98750.94
2022-12-14T14:41:17.401Z,98753.88
2022-12-14T14:43:57.692Z,98748.59
2022-12-14T14:46:57.494Z,98755.06
2022-12-14T14:49:36.399Z,98755.59
2022-12-14T14:52:59.993Z,98759.72
2022-12-14T14:58:32.386Z,98745.47
2022-12-14T15:01:20.678Z,98746.91
2022-12-14T15:04:23.701Z,98746.63
2022-12-14T15:07:07.656Z,98751.25
2022-12-14T15:10:22.907Z,98737.91
2022-12-14T15:13:00.429Z,98749.59
2022-12-14T15:15:41.970Z,98744.53
2022-12-14T15:18:32.159Z,98740.28
2022-12-14T15:21:13.793Z,98738.53
2022-12-14T15:23:51.918Z,98730.72
2022-12-14T15:26:31.955Z,98739.66
2022-12-14T15:29:04.679Z,98743.91
2022-12-14T15:31:40.315Z,98743.44
2022-12-14T15:34:18.295Z,98749.69
2022-12-14T15:36:48.712Z,98749.06
2022-12-14T15:39:35.836Z,98748.16
2022-12-14T15:42:16.943Z,98754.34
2022-12-14T15:44:56.121Z,98738.59
2022-12-14T15:47:30.805Z,98745.78
2022-12-14T15:50:30.315Z,98748.59
2022-12-14T15:53:19.055Z,98754.28
2022-12-14T15:56:00.194Z,98750.34
2022-12-14T15:58:36.000Z,98751.59
2022-12-14T16:01:34.807Z,98746.63
2022-12-14T16:04:12.547Z,98729.91
2022-12-14T16:06:57.094Z,98717.75
2022-12-14T16:09:49.946Z,98714.41
2022-12-14T16:12:45.115Z,98708.00
2022-12-14T16:15:26.507Z,98712.44
2022-12-14T16:18:02.200Z,98712.59
2022-12-14T16:20:38.453Z,98711.25
2022-12-14T16:23:14.915Z,98717.97
2022-12-14T16:26:25.605Z,98712.00
2022-12-14T16:29:23.410Z,98709.13
2022-12-14T16:32:15.484Z,98715.00
2022-12-14T16:34:59.964Z,98710.03
2022-12-14T16:37:33.107Z,98711.03
2022-12-14T16:40:05.099Z,98697.97
2022-12-14T16:42:36.887Z,98689.97
2022-12-14T16:45:17.780Z,98679.31
2022-12-14T16:48:19.961Z,98676.13
2022-12-14T16:51:03.572Z,98673.41
2022-12-14T16:53:37.920Z,98656.19
2022-12-14T16:56:18.553Z,98648.34
2022-12-14T16:59:04.673Z,98644.97
2022-12-14T17:01:45.182Z,98645.13
2022-12-14T17:04:17.869Z,98628.50
2022-12-14T17:06:56.460Z,98627.72
2022-12-14T17:09:33.457Z,98626.06
2022-12-14T17:12:14.681Z,98617.44
2022-12-14T17:14:50.114Z,98625.97
2022-12-14T17:17:32.756Z,98617.81
2022-12-14T17:20:10.596Z,98616.28
2022-12-14T17:22:43.729Z,98603.34
2022-12-14T17:25:20.334Z,98604.16
2022-12-14T17:27:50.015Z,98616.25
2022-12-14T17:30:23.091Z,98614.00
2022-12-14T17:32:55.049Z,98624.00
2022-12-14T17:35:32.314Z,98619.41
2022-12-14T17:38:01.984Z,98618.28
2022-12-14T17:40:29.770Z,98601.38
2022-12-14T17:42:59.668Z,98626.69
2022-12-14T17:45:31.391Z,98637.59
2022-12-14T17:48:01.022Z,98644.59
2022-12-14T17:50:31.212Z,98632.28
2022-12-14T17:53:00.413Z,98632.75
2022-12-14T17:55:30.207Z,98627.19
2022-12-14T17:58:00.869Z,98632.56
2022-12-14T18:00:52.380Z,98640.59
2022-12-14T18:03:22.175Z,98630.09
2022-12-14T18:05:53.322Z,98624.84
2022-12-14T18:08:24.846Z,98625.53
2022-12-14T18:11:05.437Z,98628.13
2022-12-14T18:13:38.776Z,98636.28
2022-12-14T18:16:16.859Z,98628.13
2022-12-14T18:18:46.161Z,98620.47
2022-12-14T18:21:23.594Z,98616.81
2022-12-14T18:23:53.486Z,98616.09
2022-12-14T18:26:24.425Z,98614.81
2022-12-14T18:28:54.432Z,98613.91
2022-12-14T18:31:36.060Z,98614.81
2022-12-14T18:34:05.539Z,98606.81
2022-12-14T18:36:35.035Z,98612.19
2022-12-14T18:39:04.994Z,98604.81
2022-12-14T18:41:35.048Z,98615.47
2022-12-14T18:44:05.102Z,98614.81
2022-12-14T18:46:35.060Z,98612.25
2022-12-14T18:49:03.795Z,98608.25
2022-12-14T18:51:33.531Z,98610.25
2022-12-14T18:54:02.415Z,98602.94
2022-12-14T18:56:32.066Z,98603.75
2022-12-14T18:59:01.742Z,98602.88
2022-12-14T19:01:30.524Z,98597.50
2022-12-14T19:04:00.393Z,98592.31
2022-12-14T19:06:45.992Z,98590.53
2022-12-14T19:09:15.613Z,98593.22
2022-12-14T19:11:43.997Z,98588.47
2022-12-14T19:14:13.513Z,98583.09
2022-12-14T19:16:43.021Z,98576.16
2022-12-14T19:19:12.485Z,98573.97
2022-12-14T19:21:40.420Z,98572.47
2022-12-14T19:24:13.724Z,98566.16
2022-12-14T19:26:42.754Z,98561.22
2022-12-14T19:29:12.210Z,98563.75
2022-12-14T19:31:40.022Z,98560.34
2022-12-14T19:34:13.150Z,98553.09
2022-12-14T19:36:41.896Z,98546.50
2022-12-14T19:39:09.890Z,98550.06
2022-12-14T19:41:39.390Z,98548.53
2022-12-14T19:44:07.155Z,98546.22
2022-12-14T19:46:36.213Z,98537.19
2022-12-14T19:49:06.077Z,98539.28
2022-12-14T19:51:35.561Z,98531.13
2022-12-14T19:54:06.717Z,98534.75
2022-12-14T19:56:36.180Z,98528.44
2022-12-14T19:59:04.009Z,98533.44
2022-12-14T20:01:39.724Z,98534.25
2022-12-14T20:04:15.194Z,98540.50
2022-12-14T20:06:44.838Z,98535.38
2022-12-14T20:09:17.045Z,98545.09
2022-12-14T20:11:47.151Z,98544.00
2022-12-14T20:14:16.737Z,98553.31
2022-12-14T20:16:46.326Z,98539.81
2022-12-14T20:19:16.005Z,98537.91
2022-12-14T20:21:45.091Z,98540.25
2022-12-14T20:24:14.717Z,98539.56
2022-12-14T20:26:43.446Z,98538.75
2022-12-14T20:29:14.521Z,98540.16
2022-12-14T20:31:44.656Z,98546.00
2022-12-14T20:34:14.209Z,98535.38
2022-12-14T20:36:43.709Z,98529.00
2022-12-14T20:39:13.390Z,98518.03
2022-12-14T20:41:41.225Z,98518.00
2022-12-14T20:44:14.552Z,98514.25
2022-12-14T20:46:46.785Z,98511.31
2022-12-14T20:49:21.413Z,98513.09
2022-12-14T20:51:49.668Z,98508.19
2022-12-14T20:54:22.310Z,98499.25
2022-12-14T20:56:52.161Z,98496.19
2022-12-14T20:59:19.962Z,98506.00
2022-12-14T21:01:55.498Z,98512.00
2022-12-14T21:04:26.251Z,98503.97
2022-12-14T21:06:55.846Z,98509.50
2022-12-14T21:09:25.422Z,98518.59
2022-12-14T21:12:12.768Z,98515.72
2022-12-14T21:14:42.998Z,98513.81
2022-12-14T21:17:11.974Z,98513.38
2022-12-14T21:19:41.347Z,98504.38
2022-12-14T21:22:16.690Z,98509.84
2022-12-14T21:25:02.856Z,98514.16
2022-12-14T21:27:34.872Z,98514.66
2022-12-14T21:30:08.490Z,98516.09
2022-12-14T21:32:39.127Z,98525.16
2022-12-14T21:35:10.454Z,98518.09
2022-12-14T21:37:39.408Z,98534.06
2022-12-14T21:40:29.626Z,98531.47
2022-12-14T21:42:58.355Z,98532.81
2022-12-14T21:45:27.871Z,98538.81
2022-12-14T21:47:57.348Z,98550.38
2022-12-14T21:50:26.149Z,98550.53
2022-12-14T21:52:54.849Z,98548.34
2022-12-14T21:55:24.304Z,98542.78
2022-12-14T21:58:22.894Z,98550.94
2022-12-14T22:00:51.632Z,98545.06
2022-12-14T22:03:21.214Z,98538.38
2022-12-14T22:05:50.711Z,98541.00
2022-12-14T22:08:19.416Z,98528.13
2022-12-14T22:10:48.071Z,98530.94
2022-12-14T22:13:15.814Z,98539.72
2022-12-14T22:15:43.607Z,98537.19
2022-12-14T22:18:13.068Z,98541.31
2022-12-14T22:20:41.839Z,98554.28
2022-12-14T22:23:15.631Z,98550.88
2022-12-14T22:25:51.130Z,98545.41
2022-12-14T22:28:20.684Z,98547.94
2022-12-14T22:30:50.414Z,98550.69
2022-12-14T22:33:19.135Z,98553.53
2022-12-14T22:35:48.621Z,98559.03
2022-12-14T22:38:18.175Z,98550.06
2022-12-14T22:40:46.864Z,98548.50
2022-12-14T22:43:15.598Z,98545.00
2022-12-14T22:45:45.360Z,98561.41
2022-12-14T22:48:14.191Z,98563.53
2022-12-14T22:50:43.793Z,98566.00
2022-12-14T22:53:14.121Z,98566.16
2022-12-14T22:55:49.899Z,98566.47
2022-12-14T22:58:20.489Z,98575.47
2022-12-14T23:00:50.957Z,98589.38
2022-12-14T23:03:26.257Z,98580.56
2022-12-14T23:06:00.378Z,98581.25
2022-12-14T23:08:31.624Z,98572.31
2022-12-14T23:11:19.577Z,98583.28
2022-12-14T23:14:07.055Z,98570.44
2022-12-14T23:16:55.233Z,98559.03
2022-12-14T23:19:43.387Z,98549.06
2022-12-14T23:22:31.532Z,98552.06
2022-12-14T23:25:18.861Z,98551.72
2022-12-14T23:28:06.724Z,98557.22
2022-12-14T23:30:54.793Z,98565.25
2022-12-14T23:33:42.844Z,98561.38
2022-12-14T23:36:30.961Z,98547.31
2022-12-14T23:39:19.202Z,98552.53
2022-12-14T23:42:07.552Z,98545.53
2022-12-14T23:44:55.663Z,98546.88
2022-12-14T23:47:43.799Z,98546.56
2022-12-14T23:50:31.939Z,98553.00
2022-12-14T23:53:27.778Z,98555.94
2022-12-14T23:56:15.397Z,98544.84
2022-12-14T23:59:03.515Z,98545.81
